Time;durP1;ratioP1;P1;durP2;ratioP2;P2;SDS_P1;SDS_P2;PMS_P1;PMS_P2;Temp;Humidity;BMP_temperature;BMP_pressure;BME280_temperature;BME280_humidity;BME280_pressure;Samples;Min_cycle;Max_cycle;Signal;HPM_P1;HPM_P2
2022/12/25 00:01:56;;;;;;;5.87;3.97;;;8.80;99.90;;;;;;4828313;29;20461;-72
2022/12/25 00:04:24;;;;;;;4.77;4.10;;;8.80;99.90;;;;;;4827970;29;20529;-72
2022/12/25 00:06:53;;;;;;;6.70;4.80;;;8.80;99.90;;;;;;4849856;29;20532;-72
2022/12/25 00:09:21;;;;;;;5.57;3.97;;;8.80;99.90;;;;;;4839773;29;20470;-72
2022/12/25 00:11:51;;;;;;;4.47;3.50;;;8.80;99.90;;;;;;4824171;29;20489;-72
2022/12/25 00:14:19;;;;;;;4.77;4.03;;;8.80;99.90;;;;;;4825524;29;21089;-72
2022/12/25 00:16:47;;;;;;;6.60;3.93;;;8.80;99.90;;;;;;4833910;29;20464;-72
2022/12/25 00:19:16;;;;;;;5.03;3.60;;;8.80;99.90;;;;;;4825656;29;20473;-72
2022/12/25 00:21:44;;;;;;;6.00;3.50;;;8.80;99.90;;;;;;4835915;29;21029;-72
2022/12/25 00:24:13;;;;;;;6.40;3.50;;;8.80;99.90;;;;;;4826375;29;20484;-73
2022/12/25 00:26:41;;;;;;;5.57;3.83;;;8.80;99.90;;;;;;4841755;29;20445;-72
2022/12/25 00:29:13;;;;;;;4.33;3.93;;;8.80;99.90;;;;;;4831091;29;20473;-72
2022/12/25 00:31:41;;;;;;;4.30;3.50;;;8.80;99.90;;;;;;4823026;29;20473;-72
2022/12/25 00:34:10;;;;;;;4.50;3.70;;;8.80;99.90;;;;;;4826996;29;20572;-72
2022/12/25 00:36:38;;;;;;;5.13;3.90;;;8.80;99.90;;;;;;4837910;29;20483;-72
2022/12/25 00:39:09;;;;;;;3.83;3.07;;;8.80;99.90;;;;;;4846883;29;20521;-72
2022/12/25 00:44:28;;;;;;;6.33;4.10;;;8.80;99.90;;;;;;4841365;29;20531;-72
2022/12/25 00:46:57;;;;;;;3.40;3.10;;;8.80;99.90;;;;;;4836693;29;20571;-72
2022/12/25 00:49:25;;;;;;;3.87;3.03;;;8.80;99.90;;;;;;4834008;29;21031;-72
2022/12/25 00:51:54;;;;;;;6.60;3.67;;;8.80;99.90;;;;;;4834102;29;20489;-72
2022/12/25 00:54:22;;;;;;;3.80;3.10;;;8.80;99.90;;;;;;4827840;29;20468;-72
2022/12/25 00:56:50;;;;;;;4.87;3.27;;;8.80;99.90;;;;;;4825546;29;20791;-72
2022/12/25 00:59:19;;;;;;;6.17;3.27;;;8.80;99.90;;;;;;4849060;29;20560;-72
2022/12/25 01:01:49;;;;;;;5.63;3.90;;;8.80;99.90;;;;;;4827731;29;20957;-72
2022/12/25 01:04:18;;;;;;;4.63;3.20;;;8.80;99.90;;;;;;4834085;29;21076;-72
2022/12/25 01:06:46;;;;;;;5.80;3.47;;;8.80;99.90;;;;;;4841363;29;20474;-72
2022/12/25 01:12:00;;;;;;;4.30;3.50;;;8.80;99.90;;;;;;4846562;29;20449;-72
2022/12/25 01:14:29;;;;;;;3.37;3.07;;;8.80;99.90;;;;;;4832785;29;20525;-72
2022/12/25 01:16:58;;;;;;;3.97;3.57;;;8.80;99.90;;;;;;4829346;29;20457;-72
2022/12/25 01:19:27;;;;;;;3.70;3.30;;;8.80;99.90;;;;;;4833758;29;20465;-72
2022/12/25 01:21:55;;;;;;;3.33;3.03;;;8.80;99.90;;;;;;4827210;29;20458;-72
2022/12/25 01:24:24;;;;;;;5.80;3.43;;;8.80;99.90;;;;;;4824229;29;20480;-72
2022/12/25 01:26:53;;;;;;;3.90;3.50;;;8.80;99.90;;;;;;4846283;29;20453;-73
2022/12/25 01:29:22;;;;;;;4.43;3.20;;;8.80;99.90;;;;;;4838141;29;20916;-72
2022/12/25 01:31:50;;;;;;;3.83;3.20;;;8.80;99.90;;;;;;4825223;29;20801;-72
2022/12/25 01:34:21;;;;;;;4.20;3.13;;;8.80;99.90;;;;;;4825014;29;20479;-72
2022/12/25 01:36:50;;;;;;;4.20;3.53;;;8.80;99.90;;;;;;4828203;29;20630;-72
2022/12/25 01:39:18;;;;;;;5.07;3.87;;;8.80;99.90;;;;;;4829666;29;20488;-73
2022/12/25 01:41:47;;;;;;;3.90;2.60;;;8.80;99.90;;;;;;4835567;29;20457;-72
2022/12/25 01:44:53;;;;;;;4.03;3.20;;;8.80;99.90;;;;;;4830296;29;20524;-72
2022/12/25 01:47:21;;;;;;;3.60;3.07;;;8.70;99.90;;;;;;4817038;29;20510;-72
2022/12/25 01:49:51;;;;;;;4.13;3.20;;;8.70;99.90;;;;;;4847846;29;20565;-72
2022/12/25 01:52:23;;;;;;;5.13;3.27;;;8.80;99.90;;;;;;4841218;29;20448;-72
2022/12/25 01:54:55;;;;;;;3.93;3.00;;;8.80;99.90;;;;;;4826357;29;20469;-72
2022/12/25 01:57:28;;;;;;;5.10;2.90;;;8.80;99.90;;;;;;4845033;29;20452;-73
2022/12/25 01:59:57;;;;;;;3.60;3.10;;;8.70;99.90;;;;;;4835340;29;20476;-72
2022/12/25 02:02:27;;;;;;;3.60;2.50;;;8.70;99.90;;;;;;4836862;29;20464;-72
2022/12/25 02:05:01;;;;;;;3.60;3.00;;;8.70;99.90;;;;;;4832409;29;20521;-72
2022/12/25 02:07:33;;;;;;;2.93;2.63;;;8.70;99.90;;;;;;4845775;29;20453;-72
2022/12/25 02:10:02;;;;;;;4.63;3.00;;;8.70;99.90;;;;;;4826409;29;20477;-72
2022/12/25 02:12:33;;;;;;;4.50;3.47;;;8.70;99.90;;;;;;4849049;29;20480;-72
2022/12/25 02:15:05;;;;;;;4.50;3.10;;;8.70;99.90;;;;;;4846272;29;20469;-72
2022/12/25 02:17:40;;;;;;;3.83;3.00;;;8.70;99.90;;;;;;4831929;29;20464;-73
2022/12/25 02:20:31;;;;;;;4.33;3.07;;;8.70;99.90;;;;;;4835121;29;20508;-73
2022/12/25 02:23:13;;;;;;;4.00;3.60;;;8.70;99.90;;;;;;4830000;29;20458;-72
2022/12/25 02:25:57;;;;;;;3.73;2.70;;;8.70;99.90;;;;;;4832132;29;20441;-73
2022/12/25 02:28:32;;;;;;;3.60;3.30;;;8.70;99.90;;;;;;4820321;29;20509;-73
2022/12/25 02:31:08;;;;;;;5.37;3.47;;;8.70;99.90;;;;;;4822146;29;20461;-73
2022/12/25 02:34:03;;;;;;;3.80;3.20;;;8.70;99.90;;;;;;4832671;29;20965;-73
2022/12/25 02:36:40;;;;;;;3.53;3.20;;;8.70;99.90;;;;;;4837882;29;20476;-73
2022/12/25 02:42:06;;;;;;;4.10;3.03;;;8.70;99.90;;;;;;4827066;29;20473;-73
2022/12/25 03:07:08;;;;;;;3.30;2.90;;;8.70;99.90;;;;;;4851283;29;20481;-72
2022/12/25 03:12:41;;;;;;;3.17;2.87;;;8.70;99.90;;;;;;4810273;29;20441;-72
2022/12/25 03:18:01;;;;;;;3.80;3.37;;;8.70;99.90;;;;;;4838263;29;20446;-72
2022/12/25 03:28:53;;;;;;;3.73;2.60;;;8.70;99.90;;;;;;4847111;29;20504;-73
2022/12/25 03:31:26;;;;;;;3.17;2.90;;;8.70;99.90;;;;;;4829990;29;20456;-73
2022/12/25 04:36:10;;;;;;;2.97;2.50;;;8.60;99.90;;;;;;4831196;29;20437;-72
2022/12/25 04:38:40;;;;;;;2.93;2.33;;;8.60;99.90;;;;;;4833810;29;21015;-72
2022/12/25 04:41:12;;;;;;;3.97;2.63;;;8.60;99.90;;;;;;4833483;29;20456;-72
2022/12/25 04:43:40;;;;;;;4.50;2.10;;;8.60;99.90;;;;;;4836641;29;20460;-72
2022/12/25 04:46:08;;;;;;;3.30;2.67;;;8.60;99.90;;;;;;4822865;29;20502;-72
2022/12/25 04:48:37;;;;;;;4.40;2.97;;;8.60;99.90;;;;;;4829687;29;20824;-72
2022/12/25 04:51:17;;;;;;;3.20;2.20;;;8.60;99.90;;;;;;4837388;29;20541;-72
2022/12/25 04:53:46;;;;;;;3.13;2.60;;;8.60;99.90;;;;;;4836765;29;20705;-73
2022/12/25 04:56:16;;;;;;;4.30;3.00;;;8.60;99.90;;;;;;4824476;29;20458;-73
2022/12/25 04:58:45;;;;;;;2.57;2.07;;;8.60;99.90;;;;;;4826051;29;20502;-73
2022/12/25 05:01:14;;;;;;;4.00;2.23;;;8.60;99.90;;;;;;4822170;29;20478;-73
2022/12/25 05:03:43;;;;;;;3.47;2.37;;;8.60;99.90;;;;;;4837888;29;20464;-73
2022/12/25 05:06:11;;;;;;;2.77;2.30;;;8.60;99.90;;;;;;4853352;29;20453;-72
2022/12/25 05:08:40;;;;;;;2.77;2.37;;;8.60;99.90;;;;;;4846267;29;20541;-73
2022/12/25 05:11:10;;;;;;;4.03;2.83;;;8.60;99.90;;;;;;4839871;29;20576;-73
2022/12/25 05:13:40;;;;;;;2.60;2.40;;;8.60;99.90;;;;;;4847937;29;20532;-72
2022/12/25 05:16:11;;;;;;;3.07;1.93;;;8.60;99.90;;;;;;4823840;29;20462;-73
2022/12/25 05:18:39;;;;;;;2.53;2.23;;;8.60;99.90;;;;;;4842046;29;20823;-72
2022/12/25 05:21:10;;;;;;;3.30;2.20;;;8.60;99.90;;;;;;4828848;29;20442;-72
2022/12/25 05:23:47;;;;;;;3.80;2.60;;;8.60;99.90;;;;;;4841209;29;20891;-72
2022/12/25 05:26:17;;;;;;;2.27;2.07;;;8.60;99.90;;;;;;4844857;29;20469;-72
2022/12/25 05:28:47;;;;;;;3.10;2.20;;;8.60;99.90;;;;;;4831564;29;20693;-72
2022/12/25 05:31:15;;;;;;;2.80;2.37;;;8.60;99.90;;;;;;4827716;29;21022;-72
2022/12/25 05:33:44;;;;;;;2.43;1.90;;;8.60;99.90;;;;;;4836715;29;20445;-72
2022/12/25 05:36:13;;;;;;;2.27;2.07;;;8.60;99.90;;;;;;4821019;29;21142;-72
2022/12/25 05:38:41;;;;;;;2.20;2.00;;;8.60;99.90;;;;;;4828372;29;20483;-72
2022/12/25 05:41:09;;;;;;;3.20;2.07;;;8.60;99.90;;;;;;4833590;29;20684;-72
2022/12/25 05:43:38;;;;;;;2.63;2.43;;;8.60;99.90;;;;;;4837113;29;20445;-72
2022/12/25 05:46:09;;;;;;;2.60;2.27;;;8.60;99.90;;;;;;4829044;29;20489;-72
2022/12/25 05:48:38;;;;;;;4.50;2.23;;;8.60;99.90;;;;;;4840772;29;20572;-72
2022/12/25 05:51:09;;;;;;;3.30;2.50;;;8.60;99.90;;;;;;4851620;29;20980;-72
2022/12/25 05:53:38;;;;;;;2.40;1.97;;;8.60;99.90;;;;;;4829650;29;20450;-72
2022/12/25 05:56:08;;;;;;;2.10;1.90;;;8.60;99.90;;;;;;4847958;29;20828;-72
2022/12/25 05:58:39;;;;;;;2.50;2.30;;;8.60;99.90;;;;;;4831621;29;20544;-72
2022/12/25 06:01:13;;;;;;;3.53;2.43;;;8.60;99.90;;;;;;4820554;29;20806;-72
2022/12/25 06:03:42;;;;;;;2.80;1.70;;;8.60;99.90;;;;;;4820266;29;20441;-72
2022/12/25 06:06:11;;;;;;;2.27;2.00;;;8.60;99.90;;;;;;4850494;29;20490;-72
2022/12/25 06:08:39;;;;;;;2.30;2.10;;;8.60;99.90;;;;;;4831189;29;20910;-72
2022/12/25 06:11:10;;;;;;;2.47;2.27;;;8.60;99.90;;;;;;4846866;29;20914;-73
2022/12/25 06:13:38;;;;;;;4.60;1.90;;;8.60;99.90;;;;;;4832990;29;20438;-73
2022/12/25 06:16:08;;;;;;;3.57;1.77;;;8.60;99.90;;;;;;4845239;29;21082;-73
2022/12/25 06:18:39;;;;;;;3.03;2.03;;;8.60;99.90;;;;;;4830541;29;20540;-73
2022/12/25 06:21:08;;;;;;;2.53;1.83;;;8.60;99.90;;;;;;4850746;29;20446;-73
2022/12/25 06:23:37;;;;;;;3.00;2.63;;;8.60;99.90;;;;;;4822165;29;20457;-73
2022/12/25 06:26:08;;;;;;;2.43;2.00;;;8.60;99.90;;;;;;4843191;29;20445;-73
2022/12/25 06:28:36;;;;;;;2.57;2.03;;;8.60;99.90;;;;;;4829020;29;20532;-73
2022/12/25 06:31:07;;;;;;;2.20;1.93;;;8.60;99.90;;;;;;4844673;29;20571;-73
2022/12/25 06:33:38;;;;;;;2.83;1.97;;;8.50;99.90;;;;;;4836943;29;20451;-73
2022/12/25 06:36:07;;;;;;;2.03;1.70;;;8.60;99.90;;;;;;4841633;29;20454;-73
2022/12/25 06:38:36;;;;;;;2.20;1.90;;;8.50;99.90;;;;;;4851803;29;20521;-73
2022/12/25 06:41:06;;;;;;;1.90;1.63;;;8.50;99.90;;;;;;4823277;29;20517;-73
2022/12/25 06:43:34;;;;;;;2.33;2.13;;;8.50;99.90;;;;;;4827521;29;20443;-73
2022/12/25 06:46:04;;;;;;;2.30;2.00;;;8.50;99.90;;;;;;4841936;29;20211;-72
2022/12/25 06:48:46;;;;;;;2.40;1.40;;;8.50;99.90;;;;;;4840638;29;20573;-73
2022/12/25 06:51:16;;;;;;;2.23;2.00;;;8.50;99.90;;;;;;4832418;29;20470;-73
2022/12/25 06:53:44;;;;;;;2.03;1.80;;;8.50;99.90;;;;;;4824701;29;20450;-73
2022/12/25 06:56:15;;;;;;;1.90;1.67;;;8.50;99.90;;;;;;4827676;29;20437;-73
2022/12/25 06:58:44;;;;;;;3.07;2.00;;;8.50;99.90;;;;;;4825101;29;20799;-73
2022/12/25 07:01:17;;;;;;;1.90;1.63;;;8.50;99.90;;;;;;4826190;29;20450;-73
2022/12/25 07:03:50;;;;;;;2.27;2.07;;;8.50;99.90;;;;;;4840668;29;20479;-73
2022/12/25 07:06:18;;;;;;;4.17;1.60;;;8.50;99.90;;;;;;4823559;29;20557;-73
2022/12/25 07:08:47;;;;;;;2.07;1.70;;;8.50;99.90;;;;;;4829927;29;20552;-73
2022/12/25 07:11:15;;;;;;;1.57;1.47;;;8.50;99.90;;;;;;4839680;29;20483;-73
2022/12/25 07:13:44;;;;;;;1.93;1.73;;;8.50;99.90;;;;;;4843128;29;20559;-73
2022/12/25 07:16:25;;;;;;;3.17;2.00;;;8.50;99.90;;;;;;4819346;29;20484;-70
2022/12/25 07:18:55;;;;;;;4.60;2.13;;;8.50;99.90;;;;;;4822685;29;21011;-70
2022/12/25 07:21:23;;;;;;;1.50;1.40;;;8.50;99.90;;;;;;4823956;29;20445;-70
2022/12/25 07:23:52;;;;;;;4.37;3.27;;;8.50;99.90;;;;;;4835639;29;20477;-70
2022/12/25 07:26:20;;;;;;;2.33;2.10;;;8.50;99.90;;;;;;4833711;29;21049;-70
2022/12/25 07:28:48;;;;;;;2.93;2.30;;;8.50;99.90;;;;;;4830125;29;20522;-69
2022/12/25 07:31:18;;;;;;;2.60;1.90;;;8.50;99.90;;;;;;4825872;29;20533;-69
2022/12/25 07:33:46;;;;;;;2.37;1.70;;;8.50;99.90;;;;;;4847771;29;20480;-70
2022/12/25 07:36:16;;;;;;;1.87;1.73;;;8.50;99.90;;;;;;4836320;29;20897;-69
2022/12/25 07:38:48;;;;;;;2.37;1.80;;;8.50;99.90;;;;;;4829529;29;20951;-70
2022/12/25 07:41:16;;;;;;;2.40;1.60;;;8.50;99.90;;;;;;4823303;29;20451;-69
2022/12/25 07:43:45;;;;;;;3.93;2.87;;;8.50;99.90;;;;;;4836130;29;20454;-70
2022/12/25 07:46:13;;;;;;;2.22;2.03;;;8.50;99.90;;;;;;4819552;29;20798;-71
2022/12/25 07:48:41;;;;;;;2.07;1.83;;;8.50;99.90;;;;;;4816855;29;20550;-70
2022/12/25 07:51:12;;;;;;;2.70;2.10;;;8.50;99.90;;;;;;4824681;29;20986;-69
2022/12/25 07:53:42;;;;;;;2.83;1.90;;;8.50;99.90;;;;;;4828420;29;20515;-70
2022/12/25 07:56:13;;;;;;;1.70;1.60;;;8.50;99.90;;;;;;4820917;29;20971;-70
2022/12/25 07:58:41;;;;;;;4.27;2.67;;;8.50;99.90;;;;;;4850770;29;21091;-70
2022/12/25 08:01:13;;;;;;;2.10;1.30;;;8.50;99.90;;;;;;4818940;29;20462;-70
2022/12/25 08:03:41;;;;;;;1.83;1.67;;;8.50;99.90;;;;;;4849867;29;20973;-70
2022/12/25 08:06:11;;;;;;;1.60;1.47;;;8.50;99.90;;;;;;4835922;29;20449;-70
2022/12/25 08:08:40;;;;;;;2.20;1.50;;;8.50;99.90;;;;;;4831255;29;20891;-70
2022/12/25 08:11:10;;;;;;;1.67;1.57;;;8.50;99.90;;;;;;4824805;29;20470;-70
2022/12/25 08:13:39;;;;;;;2.53;1.70;;;8.50;99.90;;;;;;4845070;29;20477;-70
2022/12/25 08:16:10;;;;;;;2.08;1.85;;;8.50;99.90;;;;;;4813288;29;20288;-70
2022/12/25 08:18:39;;;;;;;2.33;1.50;;;8.50;99.90;;;;;;4839733;29;20784;-70
2022/12/25 08:21:09;;;;;;;2.23;1.80;;;8.50;99.90;;;;;;4838639;29;20439;-70
2022/12/25 08:23:39;;;;;;;2.10;1.77;;;8.50;99.90;;;;;;4837303;29;20830;-69
2022/12/25 08:26:11;;;;;;;1.77;1.40;;;8.50;99.90;;;;;;4848816;29;20465;-70
2022/12/25 08:28:39;;;;;;;1.90;1.60;;;8.50;99.90;;;;;;4830709;29;20483;-70
2022/12/25 08:31:09;;;;;;;1.60;1.50;;;8.50;99.90;;;;;;4819983;29;20450;-69
2022/12/25 08:33:38;;;;;;;3.30;1.60;;;8.50;99.90;;;;;;4851921;29;20902;-70
2022/12/25 08:36:09;;;;;;;2.47;1.90;;;8.50;99.90;;;;;;4834629;29;20891;-70
2022/12/25 08:38:39;;;;;;;3.10;1.83;;;8.50;99.90;;;;;;4847479;29;20483;-69
2022/12/25 08:41:07;;;;;;;2.23;2.03;;;8.50;99.90;;;;;;4845882;29;20987;-70
2022/12/25 08:43:37;;;;;;;1.60;1.40;;;8.50;99.90;;;;;;4827704;29;20469;-70
2022/12/25 08:46:06;;;;;;;1.70;1.43;;;8.50;99.90;;;;;;4825434;29;20454;-69
2022/12/25 08:48:35;;;;;;;1.90;1.50;;;8.50;99.90;;;;;;4826486;29;20509;-71
2022/12/25 08:51:10;;;;;;;2.50;1.48;;;8.50;99.90;;;;;;4833294;29;20460;-69
2022/12/25 08:53:39;;;;;;;1.97;1.70;;;8.50;99.90;;;;;;4852302;29;20611;-69
2022/12/25 08:56:07;;;;;;;1.90;1.50;;;8.50;99.90;;;;;;4836653;29;20799;-70
2022/12/25 08:58:37;;;;;;;1.97;1.30;;;8.50;99.90;;;;;;4841121;29;20469;-69
2022/12/25 09:01:07;;;;;;;1.60;1.43;;;8.50;99.90;;;;;;4813903;29;20971;-69
2022/12/25 09:03:35;;;;;;;5.43;2.00;;;8.50;99.90;;;;;;4839045;29;20493;-70
2022/12/25 09:06:06;;;;;;;1.87;1.57;;;8.50;99.90;;;;;;4852348;29;20494;-70
2022/12/25 09:08:35;;;;;;;3.00;1.43;;;8.50;99.90;;;;;;4844517;29;20981;-70
2022/12/25 09:11:12;;;;;;;1.30;1.20;;;8.50;99.90;;;;;;4848059;29;20508;-70
2022/12/25 09:13:41;;;;;;;2.00;1.47;;;8.50;99.90;;;;;;4850564;29;20588;-69
2022/12/25 09:16:12;;;;;;;2.10;1.27;;;8.50;99.90;;;;;;4829140;29;20969;-70
2022/12/25 09:18:40;;;;;;;1.50;1.40;;;8.50;99.90;;;;;;4838776;29;20517;-70
2022/12/25 09:21:12;;;;;;;2.43;1.40;;;8.50;99.90;;;;;;4827294;29;20450;-70
2022/12/25 09:23:40;;;;;;;1.83;1.40;;;8.50;99.90;;;;;;4842377;29;20474;-69
2022/12/25 09:26:11;;;;;;;2.07;1.53;;;8.50;99.90;;;;;;4830790;29;20555;-69
2022/12/25 09:28:41;;;;;;;1.93;1.67;;;8.50;99.90;;;;;;4839380;29;20469;-70
2022/12/25 09:31:18;;;;;;;1.93;1.40;;;8.50;99.90;;;;;;4824744;29;20828;-70
2022/12/25 09:33:47;;;;;;;2.53;1.27;;;8.50;99.90;;;;;;4849172;29;20484;-70
2022/12/25 09:36:15;;;;;;;1.47;1.37;;;8.50;99.90;;;;;;4849807;29;20481;-69
2022/12/25 09:38:43;;;;;;;1.70;1.40;;;8.50;99.90;;;;;;4833933;29;20584;-69
2022/12/25 09:41:17;;;;;;;1.50;1.20;;;8.50;99.90;;;;;;4834710;29;20552;-69
2022/12/25 09:43:52;;;;;;;1.20;1.10;;;8.50;99.90;;;;;;4832079;29;20456;-69
2022/12/25 09:46:24;;;;;;;1.20;1.10;;;8.50;99.90;;;;;;4833333;29;20483;-70
2022/12/25 09:49:02;;;;;;;1.40;1.30;;;8.50;99.90;;;;;;4837725;29;20488;-70
2022/12/25 09:51:36;;;;;;;1.73;1.60;;;8.50;99.90;;;;;;4822731;29;20825;-69
2022/12/25 09:54:14;;;;;;;1.67;1.40;;;8.40;99.90;;;;;;4825731;29;20486;-70
2022/12/25 09:56:42;;;;;;;2.00;1.57;;;8.40;99.90;;;;;;4837065;29;20437;-70
2022/12/25 09:59:21;;;;;;;1.52;1.40;;;8.40;99.90;;;;;;4829719;29;20528;-70
2022/12/25 10:02:01;;;;;;;3.33;1.30;;;8.50;99.90;;;;;;4819198;29;20205;-70
2022/12/25 10:04:50;;;;;;;1.30;1.17;;;8.40;99.90;;;;;;4827208;29;20474;-71
2022/12/25 10:07:28;;;;;;;3.27;1.77;;;8.40;99.90;;;;;;4832497;29;20460;-70
2022/12/25 10:10:06;;;;;;;1.40;1.10;;;8.40;99.90;;;;;;4830971;29;20577;-69
2022/12/25 10:12:49;;;;;;;2.73;1.63;;;8.40;99.90;;;;;;4838438;29;20481;-70
2022/12/25 10:15:29;;;;;;;2.60;1.92;;;8.40;99.90;;;;;;4824812;29;20608;-70
2022/12/25 10:18:16;;;;;;;1.77;1.40;;;8.40;99.90;;;;;;4830868;29;20252;-70
2022/12/25 10:20:50;;;;;;;2.73;1.33;;;8.40;99.90;;;;;;4819143;29;20214;-70
2022/12/25 10:23:23;;;;;;;1.40;1.17;;;8.40;99.90;;;;;;4824281;29;20480;-70
2022/12/25 10:25:53;;;;;;;1.70;1.20;;;8.40;99.90;;;;;;4819845;29;20703;-70
2022/12/25 10:28:28;;;;;;;2.13;1.30;;;8.40;99.90;;;;;;4828229;29;20445;-70
2022/12/25 10:31:01;;;;;;;1.80;1.13;;;8.40;99.90;;;;;;4841521;29;20897;-70
2022/12/25 10:33:30;;;;;;;1.80;1.50;;;8.40;99.90;;;;;;4829688;29;20473;-70
2022/12/25 10:35:59;;;;;;;2.20;1.27;;;8.40;99.90;;;;;;4833855;29;20677;-70
2022/12/25 10:38:27;;;;;;;1.93;1.40;;;8.40;99.90;;;;;;4846319;29;20728;-70
2022/12/25 10:41:08;;;;;;;1.43;1.20;;;8.40;99.90;;;;;;4837835;29;20548;-70
2022/12/25 10:43:41;;;;;;;1.70;1.37;;;8.40;99.90;;;;;;4832336;29;20588;-70
2022/12/25 10:46:13;;;;;;;1.70;1.60;;;8.40;99.90;;;;;;4831254;29;20467;-70
2022/12/25 10:48:44;;;;;;;1.40;1.30;;;8.40;99.90;;;;;;4846872;29;20220;-70
2022/12/25 10:51:13;;;;;;;1.70;1.40;;;8.40;99.90;;;;;;4844711;29;20430;-70
2022/12/25 10:53:43;;;;;;;1.70;1.37;;;8.40;99.90;;;;;;4830195;29;20226;-70
2022/12/25 10:56:17;;;;;;;2.10;1.13;;;8.40;99.90;;;;;;4834737;29;20505;-71
2022/12/25 10:58:46;;;;;;;2.03;1.20;;;8.40;99.90;;;;;;4844966;29;20476;-70
2022/12/25 11:01:16;;;;;;;1.55;1.15;;;8.40;99.90;;;;;;4835606;29;20984;-70
2022/12/25 11:03:47;;;;;;;2.20;1.45;;;8.40;99.90;;;;;;4824200;29;20676;-70
2022/12/25 11:06:23;;;;;;;2.43;1.50;;;8.40;99.90;;;;;;4834128;29;20236;-70
2022/12/25 11:08:55;;;;;;;1.70;1.40;;;8.40;99.90;;;;;;4842956;29;21073;-70
2022/12/25 11:11:24;;;;;;;2.03;1.47;;;8.40;99.90;;;;;;4830111;29;20445;-70
2022/12/25 11:13:54;;;;;;;2.70;1.57;;;8.40;99.90;;;;;;4830174;29;20549;-70
2022/12/25 11:16:30;;;;;;;1.52;1.42;;;8.40;99.90;;;;;;4826280;29;20952;-70
2022/12/25 11:19:00;;;;;;;1.63;1.40;;;8.40;99.90;;;;;;4850603;29;20236;-70
2022/12/25 11:21:30;;;;;;;3.40;1.57;;;8.40;99.90;;;;;;4834484;29;20575;-71
2022/12/25 11:24:00;;;;;;;2.35;1.45;;;8.40;99.90;;;;;;4846279;29;20497;-71
2022/12/25 11:26:30;;;;;;;1.98;1.27;;;8.40;99.90;;;;;;4824570;29;20266;-70
2022/12/25 11:28:59;;;;;;;1.55;1.30;;;8.40;99.90;;;;;;4829613;29;20278;-70
2022/12/25 11:31:39;;;;;;;1.77;1.33;;;8.40;99.90;;;;;;4822404;29;20205;-70
2022/12/25 11:34:14;;;;;;;3.60;1.20;;;8.40;99.90;;;;;;4843772;29;20481;-70
2022/12/25 11:36:45;;;;;;;1.60;1.03;;;8.40;99.90;;;;;;4842651;29;20957;-71
2022/12/25 11:39:22;;;;;;;2.30;1.63;;;8.40;99.90;;;;;;4826353;29;21154;-69
2022/12/25 11:41:53;;;;;;;2.47;1.67;;;8.40;99.90;;;;;;4842553;29;20480;-70
2022/12/25 11:44:36;;;;;;;1.42;1.27;;;8.40;99.90;;;;;;4840067;29;20992;-70
2022/12/25 11:47:13;;;;;;;2.00;1.27;;;8.40;99.90;;;;;;4839034;29;20327;-70
2022/12/25 11:49:46;;;;;;;2.70;1.43;;;8.40;99.90;;;;;;4836804;29;21005;-70
2022/12/25 11:52:22;;;;;;;1.80;1.70;;;8.40;99.90;;;;;;4819572;29;20441;-70
2022/12/25 11:54:56;;;;;;;1.60;1.50;;;8.40;99.90;;;;;;4828130;29;20315;-71
2022/12/25 11:57:27;;;;;;;1.47;1.30;;;8.40;99.90;;;;;;4838456;29;20276;-71
2022/12/25 11:59:59;;;;;;;2.60;1.90;;;8.40;99.90;;;;;;4827206;29;21002;-70
2022/12/25 12:02:36;;;;;;;2.07;1.87;;;8.40;99.90;;;;;;4824358;29;20485;-70
2022/12/25 12:05:14;;;;;;;2.33;1.57;;;8.40;99.90;;;;;;4840169;29;20497;-69
2022/12/25 12:07:53;;;;;;;1.73;1.60;;;8.40;99.90;;;;;;4832925;29;20434;-70
2022/12/25 12:10:31;;;;;;;2.78;1.90;;;8.40;99.90;;;;;;4839543;29;20567;-70
2022/12/25 12:13:15;;;;;;;2.00;1.77;;;8.40;99.90;;;;;;4825298;29;20204;-71
2022/12/25 12:15:45;;;;;;;2.37;1.70;;;8.40;99.90;;;;;;4825241;29;20459;-69
2022/12/25 12:18:21;;;;;;;1.80;1.55;;;8.40;99.90;;;;;;4830597;29;21014;-70
2022/12/25 12:21:05;;;;;;;1.67;1.40;;;8.40;99.90;;;;;;4824575;29;20291;-70
2022/12/25 12:23:47;;;;;;;2.47;1.97;;;8.40;99.90;;;;;;4836979;29;20822;-70
2022/12/25 12:26:19;;;;;;;1.87;1.50;;;8.40;99.90;;;;;;4837233;29;20564;-70
2022/12/25 12:28:49;;;;;;;2.20;1.37;;;8.40;99.90;;;;;;4823656;29;20466;-70
2022/12/25 12:31:18;;;;;;;2.40;1.80;;;8.40;99.90;;;;;;4821160;29;20458;-70
2022/12/25 12:33:54;;;;;;;1.90;1.70;;;8.40;99.90;;;;;;4819970;29;20506;-70
2022/12/25 12:36:25;;;;;;;2.80;1.30;;;8.40;99.90;;;;;;4837105;29;20508;-70
2022/12/25 12:39:04;;;;;;;3.17;1.60;;;8.40;99.90;;;;;;4841649;29;20618;-70
2022/12/25 12:41:44;;;;;;;1.80;1.60;;;8.40;99.90;;;;;;4838989;29;20197;-70
2022/12/25 12:44:14;;;;;;;2.25;1.60;;;8.40;99.90;;;;;;4835393;29;20674;-70
2022/12/25 12:46:52;;;;;;;1.83;1.50;;;8.40;99.90;;;;;;4840455;29;20236;-70
2022/12/25 12:49:26;;;;;;;2.17;1.52;;;8.40;99.90;;;;;;4826928;29;20973;-70
2022/12/25 12:52:06;;;;;;;1.88;1.45;;;8.40;99.90;;;;;;4829921;29;20680;-70
2022/12/25 12:54:52;;;;;;;1.90;1.50;;;8.40;99.90;;;;;;4822326;29;20641;-70
2022/12/25 12:57:28;;;;;;;1.60;1.47;;;8.40;99.90;;;;;;4828024;29;20950;-70
2022/12/25 12:59:58;;;;;;;2.47;2.00;;;8.40;99.90;;;;;;4819660;29;20484;-72
2022/12/25 13:03:05;;;;;;;1.43;1.33;;;8.40;99.90;;;;;;4833576;29;20818;-73
2022/12/25 13:05:40;;;;;;;1.75;1.15;;;8.40;99.90;;;;;;4833949;29;20469;-73
2022/12/25 13:08:23;;;;;;;1.70;1.60;;;8.40;99.90;;;;;;4829650;29;20210;-69
2022/12/25 13:11:03;;;;;;;1.63;1.53;;;8.40;99.90;;;;;;4812946;29;20454;-70
2022/12/25 13:13:36;;;;;;;2.92;2.05;;;8.40;99.90;;;;;;4832037;29;20473;-71
2022/12/25 13:16:06;;;;;;;2.50;2.30;;;8.40;99.90;;;;;;4843893;29;20251;-73
2022/12/25 13:18:34;;;;;;;2.55;2.05;;;8.40;99.90;;;;;;4834169;29;20530;-72
2022/12/25 13:21:05;;;;;;;1.93;1.67;;;8.40;99.90;;;;;;4830091;29;20727;-72
2022/12/25 13:23:36;;;;;;;2.00;1.50;;;8.40;99.90;;;;;;4834995;29;20573;-72
2022/12/25 13:26:17;;;;;;;2.23;1.70;;;8.40;99.90;;;;;;4821456;29;20477;-72
2022/12/25 13:28:47;;;;;;;2.80;1.77;;;8.40;99.90;;;;;;4837930;29;20523;-72
2022/12/25 13:31:18;;;;;;;2.20;2.00;;;8.50;99.90;;;;;;4819487;29;20441;-73
2022/12/25 13:33:50;;;;;;;1.83;1.60;;;8.40;99.90;;;;;;4837399;29;20568;-72
2022/12/25 13:36:20;;;;;;;2.27;1.80;;;8.40;99.90;;;;;;4823134;29;20941;-72
2022/12/25 13:38:51;;;;;;;2.87;1.97;;;8.40;99.90;;;;;;4832262;29;20480;-73
2022/12/25 13:44:16;;;;;;;2.13;1.43;;;8.40;99.90;;;;;;4835036;29;20280;-73
2022/12/25 13:46:44;;;;;;;2.67;1.77;;;8.40;99.90;;;;;;4822764;29;20456;-72
2022/12/25 13:49:16;;;;;;;2.80;1.90;;;8.40;99.90;;;;;;4835495;29;20469;-72
2022/12/25 13:51:46;;;;;;;1.90;1.30;;;8.50;99.90;;;;;;4817119;29;20453;-72
2022/12/25 13:54:16;;;;;;;2.53;1.80;;;8.40;99.90;;;;;;4831912;29;20479;-72
2022/12/25 13:56:48;;;;;;;2.93;1.67;;;8.40;99.90;;;;;;4827340;29;20205;-72
2022/12/25 13:59:18;;;;;;;2.00;1.80;;;8.40;99.90;;;;;;4820916;29;20485;-72
2022/12/25 14:01:48;;;;;;;2.20;2.00;;;8.50;99.90;;;;;;4836711;29;20485;-72
2022/12/25 14:04:19;;;;;;;3.10;1.70;;;8.40;99.90;;;;;;4836288;29;20476;-72
2022/12/25 14:06:50;;;;;;;1.77;1.60;;;8.50;99.90;;;;;;4830971;29;20199;-72
2022/12/25 14:09:19;;;;;;;2.20;2.00;;;8.40;99.90;;;;;;4817615;29;20501;-72
2022/12/25 14:11:52;;;;;;;2.20;1.90;;;8.40;99.90;;;;;;4826698;29;20457;-72
2022/12/25 14:14:24;;;;;;;2.60;1.77;;;8.40;99.90;;;;;;4821974;29;21027;-72
2022/12/25 14:16:56;;;;;;;2.63;1.93;;;8.50;99.90;;;;;;4832558;29;20450;-72
2022/12/25 14:19:27;;;;;;;2.22;2.03;;;8.40;99.90;;;;;;4829798;29;20508;-72
2022/12/25 14:22:01;;;;;;;2.37;1.70;;;8.40;99.90;;;;;;4826624;29;20264;-72
2022/12/25 14:24:33;;;;;;;3.15;2.08;;;8.40;99.90;;;;;;4852316;29;20535;-72
2022/12/25 14:27:05;;;;;;;1.97;1.80;;;8.50;99.90;;;;;;4841744;29;20208;-72
2022/12/25 14:29:39;;;;;;;1.70;1.60;;;8.40;99.90;;;;;;4827408;29;21002;-72
2022/12/25 14:32:13;;;;;;;2.30;2.10;;;8.50;99.90;;;;;;4819332;29;20490;-72
2022/12/25 14:34:44;;;;;;;2.47;2.13;;;8.40;99.90;;;;;;4836225;29;20485;-72
2022/12/25 14:37:17;;;;;;;2.37;1.63;;;8.40;99.90;;;;;;4835375;29;20501;-72
2022/12/25 14:39:53;;;;;;;2.27;1.87;;;8.40;99.90;;;;;;4826177;29;20492;-72
2022/12/25 14:42:23;;;;;;;2.10;1.80;;;8.50;99.90;;;;;;4836094;29;20437;-73
2022/12/25 14:45:02;;;;;;;1.50;1.40;;;8.50;99.90;;;;;;4835890;29;20485;-72
2022/12/25 14:47:31;;;;;;;2.30;1.87;;;8.40;99.90;;;;;;4825984;29;20452;-72
2022/12/25 14:50:00;;;;;;;3.60;2.53;;;8.40;99.90;;;;;;4818718;29;20530;-72
2022/12/25 14:52:37;;;;;;;2.10;1.90;;;8.50;99.90;;;;;;4829353;29;20502;-72
2022/12/25 14:55:10;;;;;;;4.10;2.40;;;8.50;99.90;;;;;;4822655;29;20247;-73
2022/12/25 14:57:40;;;;;;;2.60;1.77;;;8.50;99.90;;;;;;4843314;29;20514;-72
2022/12/25 15:00:21;;;;;;;2.20;2.00;;;8.40;99.90;;;;;;4822444;29;20656;-72
2022/12/25 15:02:52;;;;;;;2.30;1.73;;;8.50;99.90;;;;;;4835915;29;20484;-72
2022/12/25 15:05:27;;;;;;;1.60;1.50;;;8.50;99.90;;;;;;4812028;29;20497;-72
2022/12/25 15:08:19;;;;;;;2.40;2.20;;;8.50;99.90;;;;;;4822750;29;21133;-72
2022/12/25 15:10:48;;;;;;;2.73;2.10;;;8.50;99.90;;;;;;4826747;29;20470;-72
2022/12/25 15:13:33;;;;;;;2.03;1.90;;;8.50;99.90;;;;;;4824787;29;20445;-72